sensor_id;sensor_type;location;lat;lon;timestamp;P1;durP1;ratioP1;P2;durP2;ratioP2
71290;SDS011;59073;51.994;4.448;2022-12-18T00:01:25;26.72;;;23.86;;
71290;SDS011;59073;51.994;4.448;2022-12-18T00:03:54;25.25;;;23.20;;
71290;SDS011;59073;51.994;4.448;2022-12-18T00:06:21;27.19;;;24.68;;
71290;SDS011;59073;51.994;4.448;2022-12-18T00:08:47;28.12;;;24.93;;
71290;SDS011;59073;51.994;4.448;2022-12-18T00:11:16;29.66;;;25.63;;
71290;SDS011;59073;51.994;4.448;2022-12-18T00:13:43;29.03;;;25.06;;
71290;SDS011;59073;51.994;4.448;2022-12-18T00:16:10;29.52;;;25.80;;
71290;SDS011;59073;51.994;4.448;2022-12-18T00:18:38;29.16;;;26.08;;
71290;SDS011;59073;51.994;4.448;2022-12-18T00:21:05;30.00;;;26.60;;
71290;SDS011;59073;51.994;4.448;2022-12-18T00:23:33;29.29;;;25.87;;
71290;SDS011;59073;51.994;4.448;2022-12-18T00:26:00;27.75;;;24.71;;
71290;SDS011;59073;51.994;4.448;2022-12-18T00:28:27;28.05;;;24.51;;
71290;SDS011;59073;51.994;4.448;2022-12-18T00:31:00;29.17;;;25.65;;
71290;SDS011;59073;51.994;4.448;2022-12-18T00:33:33;29.45;;;25.86;;
71290;SDS011;59073;51.994;4.448;2022-12-18T00:36:33;27.48;;;24.90;;
71290;SDS011;59073;51.994;4.448;2022-12-18T00:38:56;28.67;;;25.34;;
71290;SDS011;59073;51.994;4.448;2022-12-18T00:41:23;28.10;;;24.96;;
71290;SDS011;59073;51.994;4.448;2022-12-18T00:44:09;29.91;;;26.63;;
71290;SDS011;59073;51.994;4.448;2022-12-18T00:46:36;29.06;;;25.94;;
71290;SDS011;59073;51.994;4.448;2022-12-18T00:49:03;29.40;;;25.99;;
71290;SDS011;59073;51.994;4.448;2022-12-18T00:51:28;28.01;;;25.16;;
71290;SDS011;59073;51.994;4.448;2022-12-18T00:53:53;31.06;;;26.86;;
71290;SDS011;59073;51.994;4.448;2022-12-18T00:56:19;31.50;;;26.88;;
71290;SDS011;59073;51.994;4.448;2022-12-18T00:58:44;30.60;;;26.69;;
71290;SDS011;59073;51.994;4.448;2022-12-18T01:01:10;31.40;;;27.37;;
71290;SDS011;59073;51.994;4.448;2022-12-18T01:03:35;29.19;;;26.12;;
71290;SDS011;59073;51.994;4.448;2022-12-18T01:06:07;32.80;;;27.76;;
71290;SDS011;59073;51.994;4.448;2022-12-18T01:08:35;30.75;;;26.48;;
71290;SDS011;59073;51.994;4.448;2022-12-18T01:11:01;30.61;;;26.80;;
71290;SDS011;59073;51.994;4.448;2022-12-18T01:13:32;31.47;;;27.25;;
71290;SDS011;59073;51.994;4.448;2022-12-18T01:15:58;31.61;;;26.96;;
71290;SDS011;59073;51.994;4.448;2022-12-18T01:18:23;30.57;;;26.25;;
71290;SDS011;59073;51.994;4.448;2022-12-18T01:20:49;29.84;;;26.30;;
71290;SDS011;59073;51.994;4.448;2022-12-18T01:23:14;29.77;;;26.28;;
71290;SDS011;59073;51.994;4.448;2022-12-18T01:25:39;30.23;;;26.12;;
71290;SDS011;59073;51.994;4.448;2022-12-18T01:28:05;30.05;;;25.87;;
71290;SDS011;59073;51.994;4.448;2022-12-18T01:30:30;29.09;;;25.38;;
71290;SDS011;59073;51.994;4.448;2022-12-18T01:32:56;29.08;;;25.65;;
71290;SDS011;59073;51.994;4.448;2022-12-18T01:35:21;31.04;;;26.79;;
71290;SDS011;59073;51.994;4.448;2022-12-18T01:37:46;28.49;;;24.81;;
71290;SDS011;59073;51.994;4.448;2022-12-18T01:40:12;28.74;;;25.10;;
71290;SDS011;59073;51.994;4.448;2022-12-18T01:42:37;31.07;;;26.72;;
71290;SDS011;59073;51.994;4.448;2022-12-18T01:45:22;29.07;;;25.35;;
71290;SDS011;59073;51.994;4.448;2022-12-18T01:47:57;28.51;;;25.15;;
71290;SDS011;59073;51.994;4.448;2022-12-18T01:50:40;29.45;;;25.50;;
71290;SDS011;59073;51.994;4.448;2022-12-18T01:55:45;30.77;;;26.50;;
71290;SDS011;59073;51.994;4.448;2022-12-18T01:58:15;31.63;;;27.18;;
71290;SDS011;59073;51.994;4.448;2022-12-18T02:00:42;29.55;;;25.85;;
71290;SDS011;59073;51.994;4.448;2022-12-18T02:03:08;29.51;;;25.96;;
71290;SDS011;59073;51.994;4.448;2022-12-18T02:05:36;29.97;;;26.04;;
71290;SDS011;59073;51.994;4.448;2022-12-18T02:18:35;29.48;;;25.27;;
71290;SDS011;59073;51.994;4.448;2022-12-18T02:21:11;28.40;;;24.38;;
71290;SDS011;59073;51.994;4.448;2022-12-18T02:23:59;30.19;;;26.29;;
71290;SDS011;59073;51.994;4.448;2022-12-18T02:26:50;31.39;;;27.26;;
71290;SDS011;59073;51.994;4.448;2022-12-18T02:29:28;29.67;;;26.04;;
71290;SDS011;59073;51.994;4.448;2022-12-18T02:32:00;28.49;;;25.11;;
71290;SDS011;59073;51.994;4.448;2022-12-18T02:34:31;27.18;;;24.08;;
71290;SDS011;59073;51.994;4.448;2022-12-18T02:37:03;28.98;;;25.43;;
71290;SDS011;59073;51.994;4.448;2022-12-18T02:39:34;30.52;;;26.35;;
71290;SDS011;59073;51.994;4.448;2022-12-18T02:42:03;29.82;;;25.92;;
71290;SDS011;59073;51.994;4.448;2022-12-18T02:44:33;30.50;;;26.20;;
71290;SDS011;59073;51.994;4.448;2022-12-18T02:47:00;30.40;;;26.13;;
71290;SDS011;59073;51.994;4.448;2022-12-18T02:52:29;28.42;;;25.28;;
71290;SDS011;59073;51.994;4.448;2022-12-18T02:58:04;27.96;;;24.71;;
71290;SDS011;59073;51.994;4.448;2022-12-18T03:00:48;25.24;;;23.11;;
71290;SDS011;59073;51.994;4.448;2022-12-18T03:03:57;26.60;;;24.05;;
71290;SDS011;59073;51.994;4.448;2022-12-18T03:06:35;27.06;;;24.48;;
71290;SDS011;59073;51.994;4.448;2022-12-18T03:09:07;27.54;;;24.43;;
71290;SDS011;59073;51.994;4.448;2022-12-18T03:11:39;25.83;;;23.34;;
71290;SDS011;59073;51.994;4.448;2022-12-18T03:14:28;25.54;;;23.14;;
71290;SDS011;59073;51.994;4.448;2022-12-18T03:16:59;24.63;;;22.54;;
71290;SDS011;59073;51.994;4.448;2022-12-18T03:19:28;25.46;;;22.97;;
71290;SDS011;59073;51.994;4.448;2022-12-18T03:21:58;25.11;;;22.58;;
71290;SDS011;59073;51.994;4.448;2022-12-18T03:24:29;24.87;;;22.64;;
71290;SDS011;59073;51.994;4.448;2022-12-18T03:26:59;25.64;;;22.71;;
71290;SDS011;59073;51.994;4.448;2022-12-18T03:29:34;25.03;;;22.38;;
71290;SDS011;59073;51.994;4.448;2022-12-18T03:32:09;24.05;;;21.70;;
71290;SDS011;59073;51.994;4.448;2022-12-18T03:34:41;25.00;;;21.75;;
71290;SDS011;59073;51.994;4.448;2022-12-18T03:37:10;25.16;;;22.08;;
71290;SDS011;59073;51.994;4.448;2022-12-18T03:39:36;24.52;;;21.76;;
71290;SDS011;59073;51.994;4.448;2022-12-18T03:42:15;23.00;;;20.93;;
71290;SDS011;59073;51.994;4.448;2022-12-18T03:55:42;22.12;;;19.91;;
71290;SDS011;59073;51.994;4.448;2022-12-18T03:58:09;22.65;;;20.73;;
71290;SDS011;59073;51.994;4.448;2022-12-18T04:00:40;20.92;;;19.31;;
71290;SDS011;59073;51.994;4.448;2022-12-18T04:03:08;21.63;;;19.72;;
71290;SDS011;59073;51.994;4.448;2022-12-18T04:05:35;21.26;;;19.47;;
71290;SDS011;59073;51.994;4.448;2022-12-18T04:08:02;22.01;;;20.08;;
71290;SDS011;59073;51.994;4.448;2022-12-18T04:10:28;21.51;;;19.90;;
71290;SDS011;59073;51.994;4.448;2022-12-18T04:12:57;22.16;;;19.95;;
71290;SDS011;59073;51.994;4.448;2022-12-18T04:15:23;21.34;;;19.30;;
71290;SDS011;59073;51.994;4.448;2022-12-18T04:17:49;22.70;;;20.22;;
71290;SDS011;59073;51.994;4.448;2022-12-18T04:20:15;22.89;;;20.39;;
71290;SDS011;59073;51.994;4.448;2022-12-18T04:22:42;22.41;;;20.19;;
71290;SDS011;59073;51.994;4.448;2022-12-18T04:25:08;24.12;;;21.31;;
71290;SDS011;59073;51.994;4.448;2022-12-18T04:27:34;25.26;;;22.29;;
71290;SDS011;59073;51.994;4.448;2022-12-18T04:29:59;24.85;;;21.88;;
71290;SDS011;59073;51.994;4.448;2022-12-18T04:32:25;25.41;;;22.33;;
71290;SDS011;59073;51.994;4.448;2022-12-18T04:34:51;24.91;;;21.98;;
71290;SDS011;59073;51.994;4.448;2022-12-18T04:37:16;23.68;;;21.07;;
71290;SDS011;59073;51.994;4.448;2022-12-18T04:39:42;25.64;;;22.46;;
71290;SDS011;59073;51.994;4.448;2022-12-18T04:42:07;24.75;;;21.85;;
71290;SDS011;59073;51.994;4.448;2022-12-18T04:44:32;25.23;;;22.34;;
71290;SDS011;59073;51.994;4.448;2022-12-18T04:46:58;25.06;;;21.76;;
71290;SDS011;59073;51.994;4.448;2022-12-18T04:49:23;23.93;;;21.60;;
71290;SDS011;59073;51.994;4.448;2022-12-18T04:51:49;24.61;;;21.77;;
71290;SDS011;59073;51.994;4.448;2022-12-18T04:54:14;23.43;;;21.07;;
71290;SDS011;59073;51.994;4.448;2022-12-18T04:56:40;24.75;;;21.88;;
71290;SDS011;59073;51.994;4.448;2022-12-18T04:59:05;23.48;;;21.07;;
71290;SDS011;59073;51.994;4.448;2022-12-18T05:01:30;22.07;;;20.28;;
71290;SDS011;59073;51.994;4.448;2022-12-18T05:03:56;23.45;;;21.05;;
71290;SDS011;59073;51.994;4.448;2022-12-18T05:06:21;23.11;;;20.89;;
71290;SDS011;59073;51.994;4.448;2022-12-18T05:08:47;22.48;;;20.16;;
71290;SDS011;59073;51.994;4.448;2022-12-18T05:11:12;22.70;;;20.72;;
71290;SDS011;59073;51.994;4.448;2022-12-18T05:13:40;22.48;;;20.58;;
71290;SDS011;59073;51.994;4.448;2022-12-18T05:16:06;21.37;;;19.59;;
71290;SDS011;59073;51.994;4.448;2022-12-18T05:18:32;21.25;;;19.53;;
71290;SDS011;59073;51.994;4.448;2022-12-18T05:20:58;23.88;;;21.61;;
71290;SDS011;59073;51.994;4.448;2022-12-18T05:23:23;22.86;;;20.77;;
71290;SDS011;59073;51.994;4.448;2022-12-18T05:25:53;22.45;;;20.54;;
71290;SDS011;59073;51.994;4.448;2022-12-18T05:28:25;22.23;;;20.49;;
71290;SDS011;59073;51.994;4.448;2022-12-18T05:30:52;21.31;;;19.74;;
71290;SDS011;59073;51.994;4.448;2022-12-18T05:33:23;20.78;;;19.25;;
71290;SDS011;59073;51.994;4.448;2022-12-18T05:35:51;21.24;;;19.58;;
71290;SDS011;59073;51.994;4.448;2022-12-18T05:38:17;19.46;;;18.23;;
71290;SDS011;59073;51.994;4.448;2022-12-18T05:40:43;19.75;;;18.70;;
71290;SDS011;59073;51.994;4.448;2022-12-18T05:43:09;21.33;;;19.58;;
71290;SDS011;59073;51.994;4.448;2022-12-18T05:45:36;21.74;;;19.81;;
71290;SDS011;59073;51.994;4.448;2022-12-18T05:48:03;20.66;;;19.28;;
71290;SDS011;59073;51.994;4.448;2022-12-18T05:50:29;19.71;;;18.71;;
71290;SDS011;59073;51.994;4.448;2022-12-18T05:52:54;20.57;;;19.39;;
71290;SDS011;59073;51.994;4.448;2022-12-18T05:55:20;21.14;;;19.50;;
71290;SDS011;59073;51.994;4.448;2022-12-18T05:57:45;21.50;;;20.20;;
71290;SDS011;59073;51.994;4.448;2022-12-18T06:00:10;20.98;;;19.64;;
71290;SDS011;59073;51.994;4.448;2022-12-18T06:02:36;21.30;;;20.05;;
71290;SDS011;59073;51.994;4.448;2022-12-18T06:05:02;21.07;;;19.65;;
71290;SDS011;59073;51.994;4.448;2022-12-18T06:07:27;20.72;;;19.43;;
71290;SDS011;59073;51.994;4.448;2022-12-18T06:09:53;19.55;;;18.61;;
71290;SDS011;59073;51.994;4.448;2022-12-18T06:12:18;20.67;;;19.36;;
71290;SDS011;59073;51.994;4.448;2022-12-18T06:14:44;21.35;;;19.66;;
71290;SDS011;59073;51.994;4.448;2022-12-18T06:17:09;19.73;;;18.60;;
71290;SDS011;59073;51.994;4.448;2022-12-18T06:19:34;19.59;;;18.57;;
71290;SDS011;59073;51.994;4.448;2022-12-18T06:22:00;20.51;;;19.00;;
71290;SDS011;59073;51.994;4.448;2022-12-18T06:24:25;20.73;;;19.33;;
71290;SDS011;59073;51.994;4.448;2022-12-18T06:26:51;19.70;;;18.48;;
71290;SDS011;59073;51.994;4.448;2022-12-18T06:29:16;20.36;;;19.24;;
71290;SDS011;59073;51.994;4.448;2022-12-18T06:31:41;19.76;;;18.91;;
71290;SDS011;59073;51.994;4.448;2022-12-18T06:34:07;21.11;;;19.73;;
71290;SDS011;59073;51.994;4.448;2022-12-18T06:36:32;20.48;;;19.23;;
71290;SDS011;59073;51.994;4.448;2022-12-18T06:38:58;19.54;;;18.41;;
71290;SDS011;59073;51.994;4.448;2022-12-18T06:41:24;18.75;;;17.67;;
71290;SDS011;59073;51.994;4.448;2022-12-18T06:43:50;19.21;;;18.20;;
71290;SDS011;59073;51.994;4.448;2022-12-18T06:46:16;19.83;;;18.44;;
71290;SDS011;59073;51.994;4.448;2022-12-18T06:48:41;19.98;;;18.94;;
71290;SDS011;59073;51.994;4.448;2022-12-18T06:51:07;19.43;;;18.37;;
71290;SDS011;59073;51.994;4.448;2022-12-18T06:53:32;19.67;;;18.58;;
71290;SDS011;59073;51.994;4.448;2022-12-18T06:56:02;19.78;;;18.35;;
71290;SDS011;59073;51.994;4.448;2022-12-18T06:58:30;18.75;;;17.69;;
71290;SDS011;59073;51.994;4.448;2022-12-18T07:00:59;19.59;;;18.56;;
71290;SDS011;59073;51.994;4.448;2022-12-18T07:03:26;18.17;;;17.07;;
71290;SDS011;59073;51.994;4.448;2022-12-18T07:05:51;18.46;;;17.59;;
71290;SDS011;59073;51.994;4.448;2022-12-18T07:08:17;17.46;;;16.76;;
71290;SDS011;59073;51.994;4.448;2022-12-18T07:10:43;17.49;;;16.58;;
71290;SDS011;59073;51.994;4.448;2022-12-18T07:13:08;17.41;;;16.61;;
71290;SDS011;59073;51.994;4.448;2022-12-18T07:15:34;16.65;;;15.93;;
71290;SDS011;59073;51.994;4.448;2022-12-18T07:18:00;16.57;;;15.95;;
71290;SDS011;59073;51.994;4.448;2022-12-18T07:20:25;17.80;;;16.71;;
71290;SDS011;59073;51.994;4.448;2022-12-18T07:22:51;16.94;;;16.02;;
71290;SDS011;59073;51.994;4.448;2022-12-18T07:25:16;16.84;;;15.94;;
71290;SDS011;59073;51.994;4.448;2022-12-18T07:27:41;15.26;;;14.81;;
71290;SDS011;59073;51.994;4.448;2022-12-18T07:30:07;15.44;;;14.91;;
71290;SDS011;59073;51.994;4.448;2022-12-18T07:32:33;15.68;;;15.08;;
71290;SDS011;59073;51.994;4.448;2022-12-18T07:34:59;15.26;;;14.55;;
71290;SDS011;59073;51.994;4.448;2022-12-18T07:37:24;15.20;;;14.65;;
71290;SDS011;59073;51.994;4.448;2022-12-18T07:39:50;15.25;;;14.70;;
71290;SDS011;59073;51.994;4.448;2022-12-18T07:42:15;15.72;;;15.07;;
71290;SDS011;59073;51.994;4.448;2022-12-18T07:44:56;15.38;;;14.90;;
71290;SDS011;59073;51.994;4.448;2022-12-18T07:47:22;14.91;;;14.55;;
71290;SDS011;59073;51.994;4.448;2022-12-18T07:49:48;14.45;;;14.16;;
71290;SDS011;59073;51.994;4.448;2022-12-18T07:52:13;15.38;;;14.79;;
71290;SDS011;59073;51.994;4.448;2022-12-18T07:54:39;14.99;;;14.29;;
71290;SDS011;59073;51.994;4.448;2022-12-18T07:57:05;14.36;;;13.91;;
71290;SDS011;59073;51.994;4.448;2022-12-18T07:59:31;14.96;;;14.43;;
71290;SDS011;59073;51.994;4.448;2022-12-18T08:01:56;14.94;;;14.35;;
71290;SDS011;59073;51.994;4.448;2022-12-18T08:04:22;14.57;;;14.03;;
71290;SDS011;59073;51.994;4.448;2022-12-18T08:06:47;14.05;;;13.68;;
71290;SDS011;59073;51.994;4.448;2022-12-18T08:09:13;14.18;;;13.84;;
71290;SDS011;59073;51.994;4.448;2022-12-18T08:11:57;14.24;;;13.90;;
71290;SDS011;59073;51.994;4.448;2022-12-18T08:14:38;13.37;;;13.06;;
71290;SDS011;59073;51.994;4.448;2022-12-18T08:17:04;14.20;;;13.85;;
71290;SDS011;59073;51.994;4.448;2022-12-18T08:19:30;14.10;;;13.67;;
71290;SDS011;59073;51.994;4.448;2022-12-18T08:21:55;13.91;;;13.48;;
71290;SDS011;59073;51.994;4.448;2022-12-18T08:24:22;13.47;;;13.20;;
71290;SDS011;59073;51.994;4.448;2022-12-18T08:26:47;13.99;;;13.66;;
71290;SDS011;59073;51.994;4.448;2022-12-18T08:29:13;14.30;;;13.85;;
71290;SDS011;59073;51.994;4.448;2022-12-18T08:31:38;13.74;;;13.36;;
71290;SDS011;59073;51.994;4.448;2022-12-18T08:34:04;13.92;;;13.55;;
71290;SDS011;59073;51.994;4.448;2022-12-18T08:36:29;13.69;;;13.32;;
71290;SDS011;59073;51.994;4.448;2022-12-18T08:38:54;13.76;;;13.57;;
71290;SDS011;59073;51.994;4.448;2022-12-18T08:41:21;13.49;;;13.27;;
71290;SDS011;59073;51.994;4.448;2022-12-18T08:43:46;13.86;;;13.73;;
71290;SDS011;59073;51.994;4.448;2022-12-18T08:46:32;14.46;;;14.15;;
71290;SDS011;59073;51.994;4.448;2022-12-18T08:49:00;13.97;;;13.75;;
71290;SDS011;59073;51.994;4.448;2022-12-18T08:51:25;14.63;;;14.36;;
71290;SDS011;59073;51.994;4.448;2022-12-18T08:53:51;15.47;;;14.95;;
71290;SDS011;59073;51.994;4.448;2022-12-18T08:56:16;15.91;;;15.35;;
71290;SDS011;59073;51.994;4.448;2022-12-18T08:58:42;14.71;;;14.26;;
71290;SDS011;59073;51.994;4.448;2022-12-18T09:01:08;15.19;;;14.86;;
71290;SDS011;59073;51.994;4.448;2022-12-18T09:03:35;14.68;;;14.36;;
71290;SDS011;59073;51.994;4.448;2022-12-18T09:06:01;14.26;;;14.01;;
71290;SDS011;59073;51.994;4.448;2022-12-18T09:08:27;13.39;;;13.20;;
71290;SDS011;59073;51.994;4.448;2022-12-18T09:10:53;13.98;;;13.77;;
71290;SDS011;59073;51.994;4.448;2022-12-18T09:13:18;13.89;;;13.62;;
71290;SDS011;59073;51.994;4.448;2022-12-18T09:15:45;13.73;;;13.41;;
71290;SDS011;59073;51.994;4.448;2022-12-18T09:18:12;13.93;;;13.61;;
71290;SDS011;59073;51.994;4.448;2022-12-18T09:20:39;13.92;;;13.68;;
71290;SDS011;59073;51.994;4.448;2022-12-18T09:23:05;13.28;;;13.11;;
71290;SDS011;59073;51.994;4.448;2022-12-18T09:25:31;13.70;;;13.34;;
71290;SDS011;59073;51.994;4.448;2022-12-18T09:28:19;13.63;;;13.44;;
71290;SDS011;59073;51.994;4.448;2022-12-18T09:30:48;13.82;;;13.52;;
71290;SDS011;59073;51.994;4.448;2022-12-18T09:33:14;13.27;;;13.01;;
71290;SDS011;59073;51.994;4.448;2022-12-18T09:35:41;13.98;;;13.72;;
71290;SDS011;59073;51.994;4.448;2022-12-18T09:38:15;13.98;;;13.56;;
71290;SDS011;59073;51.994;4.448;2022-12-18T09:40:52;14.56;;;14.23;;
71290;SDS011;59073;51.994;4.448;2022-12-18T09:46:15;14.17;;;13.82;;
71290;SDS011;59073;51.994;4.448;2022-12-18T09:48:51;14.79;;;14.42;;
71290;SDS011;59073;51.994;4.448;2022-12-18T09:51:22;14.60;;;14.11;;
71290;SDS011;59073;51.994;4.448;2022-12-18T09:54:02;14.31;;;13.99;;
71290;SDS011;59073;51.994;4.448;2022-12-18T09:56:34;14.65;;;14.17;;
71290;SDS011;59073;51.994;4.448;2022-12-18T09:59:04;14.16;;;13.94;;
71290;SDS011;59073;51.994;4.448;2022-12-18T10:01:31;14.11;;;13.86;;
71290;SDS011;59073;51.994;4.448;2022-12-18T10:03:58;14.51;;;14.14;;
71290;SDS011;59073;51.994;4.448;2022-12-18T10:09:25;14.54;;;14.25;;
71290;SDS011;59073;51.994;4.448;2022-12-18T10:14:57;13.36;;;13.25;;
71290;SDS011;59073;51.994;4.448;2022-12-18T10:17:46;13.15;;;13.03;;
71290;SDS011;59073;51.994;4.448;2022-12-18T10:23:03;12.47;;;12.24;;
71290;SDS011;59073;51.994;4.448;2022-12-18T10:25:50;14.16;;;13.88;;
71290;SDS011;59073;51.994;4.448;2022-12-18T10:28:24;13.06;;;12.68;;
71290;SDS011;59073;51.994;4.448;2022-12-18T10:30:51;13.79;;;13.39;;
71290;SDS011;59073;51.994;4.448;2022-12-18T10:33:19;12.91;;;12.58;;
71290;SDS011;59073;51.994;4.448;2022-12-18T10:35:48;13.03;;;12.82;;
71290;SDS011;59073;51.994;4.448;2022-12-18T10:40:51;13.61;;;13.43;;
71290;SDS011;59073;51.994;4.448;2022-12-18T10:43:29;12.72;;;12.59;;
71290;SDS011;59073;51.994;4.448;2022-12-18T10:46:00;13.08;;;12.88;;
71290;SDS011;59073;51.994;4.448;2022-12-18T10:48:36;13.49;;;13.33;;
71290;SDS011;59073;51.994;4.448;2022-12-18T10:51:28;12.48;;;12.27;;
71290;SDS011;59073;51.994;4.448;2022-12-18T10:54:14;12.67;;;12.55;;
71290;SDS011;59073;51.994;4.448;2022-12-18T10:56:43;13.33;;;13.14;;
71290;SDS011;59073;51.994;4.448;2022-12-18T10:59:10;13.34;;;13.14;;
71290;SDS011;59073;51.994;4.448;2022-12-18T11:01:54;13.70;;;13.47;;
71290;SDS011;59073;51.994;4.448;2022-12-18T11:04:29;13.68;;;13.54;;
71290;SDS011;59073;51.994;4.448;2022-12-18T11:07:06;13.45;;;13.30;;
71290;SDS011;59073;51.994;4.448;2022-12-18T11:09:34;13.53;;;13.33;;
71290;SDS011;59073;51.994;4.448;2022-12-18T11:12:02;12.92;;;12.79;;
71290;SDS011;59073;51.994;4.448;2022-12-18T11:17:20;13.22;;;13.04;;
71290;SDS011;59073;51.994;4.448;2022-12-18T11:19:58;12.89;;;12.70;;
71290;SDS011;59073;51.994;4.448;2022-12-18T11:22:29;12.70;;;12.61;;
71290;SDS011;59073;51.994;4.448;2022-12-18T11:25:02;12.77;;;12.67;;
71290;SDS011;59073;51.994;4.448;2022-12-18T11:27:39;13.51;;;13.29;;
71290;SDS011;59073;51.994;4.448;2022-12-18T11:30:13;13.58;;;13.33;;
71290;SDS011;59073;51.994;4.448;2022-12-18T11:32:48;13.43;;;13.11;;
71290;SDS011;59073;51.994;4.448;2022-12-18T11:35:35;14.04;;;13.84;;
71290;SDS011;59073;51.994;4.448;2022-12-18T11:41:05;13.66;;;13.48;;
71290;SDS011;59073;51.994;4.448;2022-12-18T11:43:58;12.87;;;12.75;;
71290;SDS011;59073;51.994;4.448;2022-12-18T11:46:37;14.05;;;13.86;;
71290;SDS011;59073;51.994;4.448;2022-12-18T11:49:15;13.66;;;13.49;;
71290;SDS011;59073;51.994;4.448;2022-12-18T11:51:55;13.26;;;13.08;;
71290;SDS011;59073;51.994;4.448;2022-12-18T11:54:39;13.22;;;13.06;;
71290;SDS011;59073;51.994;4.448;2022-12-18T11:57:15;12.91;;;12.77;;
71290;SDS011;59073;51.994;4.448;2022-12-18T11:59:52;12.69;;;12.55;;
71290;SDS011;59073;51.994;4.448;2022-12-18T12:02:42;12.73;;;12.64;;
71290;SDS011;59073;51.994;4.448;2022-12-18T12:36:27;14.39;;;14.10;;
71290;SDS011;59073;51.994;4.448;2022-12-18T12:39:06;13.80;;;13.46;;
71290;SDS011;59073;51.994;4.448;2022-12-18T12:41:39;13.86;;;13.57;;
71290;SDS011;59073;51.994;4.448;2022-12-18T12:44:31;13.47;;;13.26;;
71290;SDS011;59073;51.994;4.448;2022-12-18T12:47:16;12.79;;;12.69;;
71290;SDS011;59073;51.994;4.448;2022-12-18T12:49:46;13.76;;;13.60;;
71290;SDS011;59073;51.994;4.448;2022-12-18T12:52:15;14.15;;;13.89;;
71290;SDS011;59073;51.994;4.448;2022-12-18T12:54:52;14.02;;;13.79;;
71290;SDS011;59073;51.994;4.448;2022-12-18T12:57:30;13.12;;;12.96;;
71290;SDS011;59073;51.994;4.448;2022-12-18T13:00:03;14.38;;;14.18;;
71290;SDS011;59073;51.994;4.448;2022-12-18T13:05:41;13.32;;;13.07;;
71290;SDS011;59073;51.994;4.448;2022-12-18T13:08:29;13.50;;;13.30;;
71290;SDS011;59073;51.994;4.448;2022-12-18T13:11:28;13.84;;;13.68;;
71290;SDS011;59073;51.994;4.448;2022-12-18T13:14:20;14.01;;;13.88;;
71290;SDS011;59073;51.994;4.448;2022-12-18T13:17:09;13.56;;;13.41;;
71290;SDS011;59073;51.994;4.448;2022-12-18T13:19:43;14.13;;;13.76;;
71290;SDS011;59073;51.994;4.448;2022-12-18T13:22:23;14.03;;;13.83;;
71290;SDS011;59073;51.994;4.448;2022-12-18T13:24:53;14.06;;;13.82;;
71290;SDS011;59073;51.994;4.448;2022-12-18T13:38:21;13.71;;;13.47;;
71290;SDS011;59073;51.994;4.448;2022-12-18T13:41:04;14.04;;;13.85;;
71290;SDS011;59073;51.994;4.448;2022-12-18T13:43:47;13.81;;;13.59;;
71290;SDS011;59073;51.994;4.448;2022-12-18T13:46:19;15.01;;;14.81;;
71290;SDS011;59073;51.994;4.448;2022-12-18T13:48:50;15.24;;;14.92;;
71290;SDS011;59073;51.994;4.448;2022-12-18T13:51:22;14.65;;;14.49;;
71290;SDS011;59073;51.994;4.448;2022-12-18T13:53:50;14.60;;;14.35;;
71290;SDS011;59073;51.994;4.448;2022-12-18T13:56:26;15.71;;;15.26;;
71290;SDS011;59073;51.994;4.448;2022-12-18T14:01:59;15.34;;;15.16;;
71290;SDS011;59073;51.994;4.448;2022-12-18T14:04:27;14.84;;;14.77;;
71290;SDS011;59073;51.994;4.448;2022-12-18T14:07:02;15.26;;;15.12;;
71290;SDS011;59073;51.994;4.448;2022-12-18T14:09:33;14.39;;;14.24;;
71290;SDS011;59073;51.994;4.448;2022-12-18T14:12:02;14.74;;;14.47;;
71290;SDS011;59073;51.994;4.448;2022-12-18T14:14:47;14.71;;;14.45;;
71290;SDS011;59073;51.994;4.448;2022-12-18T14:17:16;15.37;;;15.04;;
71290;SDS011;59073;51.994;4.448;2022-12-18T14:19:43;14.17;;;13.96;;
71290;SDS011;59073;51.994;4.448;2022-12-18T14:22:18;14.02;;;13.82;;
71290;SDS011;59073;51.994;4.448;2022-12-18T14:24:46;13.93;;;13.79;;
71290;SDS011;59073;51.994;4.448;2022-12-18T14:27:22;14.08;;;13.89;;
71290;SDS011;59073;51.994;4.448;2022-12-18T14:29:50;13.70;;;13.50;;
71290;SDS011;59073;51.994;4.448;2022-12-18T14:32:17;14.00;;;13.74;;
71290;SDS011;59073;51.994;4.448;2022-12-18T14:34:45;13.44;;;13.37;;
71290;SDS011;59073;51.994;4.448;2022-12-18T14:37:14;14.55;;;14.48;;
71290;SDS011;59073;51.994;4.448;2022-12-18T14:39:56;14.14;;;13.98;;
71290;SDS011;59073;51.994;4.448;2022-12-18T14:42:24;14.07;;;13.87;;
71290;SDS011;59073;51.994;4.448;2022-12-18T14:48:00;14.68;;;14.49;;
71290;SDS011;59073;51.994;4.448;2022-12-18T14:50:32;14.64;;;14.34;;
71290;SDS011;59073;51.994;4.448;2022-12-18T14:52:57;14.61;;;14.40;;
71290;SDS011;59073;51.994;4.448;2022-12-18T14:55:23;14.31;;;14.06;;
71290;SDS011;59073;51.994;4.448;2022-12-18T14:57:49;14.40;;;14.07;;
71290;SDS011;59073;51.994;4.448;2022-12-18T15:00:20;14.44;;;14.06;;
71290;SDS011;59073;51.994;4.448;2022-12-18T15:02:51;13.86;;;13.46;;
71290;SDS011;59073;51.994;4.448;2022-12-18T15:05:24;14.34;;;14.09;;
71290;SDS011;59073;51.994;4.448;2022-12-18T15:07:53;13.81;;;13.66;;
71290;SDS011;59073;51.994;4.448;2022-12-18T15:10:25;14.23;;;14.11;;
71290;SDS011;59073;51.994;4.448;2022-12-18T15:18:04;14.60;;;14.18;;
71290;SDS011;59073;51.994;4.448;2022-12-18T15:33:29;13.21;;;13.10;;
71290;SDS011;59073;51.994;4.448;2022-12-18T15:36:23;13.71;;;13.61;;
71290;SDS011;59073;51.994;4.448;2022-12-18T15:38:51;14.32;;;14.18;;
71290;SDS011;59073;51.994;4.448;2022-12-18T15:41:20;15.30;;;15.15;;
71290;SDS011;59073;51.994;4.448;2022-12-18T15:43:47;17.46;;;17.23;;
71290;SDS011;59073;51.994;4.448;2022-12-18T15:48:45;14.18;;;13.79;;
71290;SDS011;59073;51.994;4.448;2022-12-18T15:51:17;13.37;;;13.14;;
71290;SDS011;59073;51.994;4.448;2022-12-18T15:53:54;13.50;;;13.31;;
71290;SDS011;59073;51.994;4.448;2022-12-18T15:56:22;13.43;;;13.20;;
71290;SDS011;59073;51.994;4.448;2022-12-18T15:59:19;13.49;;;13.27;;
71290;SDS011;59073;51.994;4.448;2022-12-18T16:01:46;13.61;;;13.45;;
71290;SDS011;59073;51.994;4.448;2022-12-18T16:04:14;13.86;;;13.69;;
71290;SDS011;59073;51.994;4.448;2022-12-18T16:06:41;14.15;;;13.82;;
71290;SDS011;59073;51.994;4.448;2022-12-18T16:09:07;14.06;;;13.73;;
71290;SDS011;59073;51.994;4.448;2022-12-18T16:11:34;13.52;;;13.30;;
71290;SDS011;59073;51.994;4.448;2022-12-18T16:16:45;13.97;;;13.80;;
71290;SDS011;59073;51.994;4.448;2022-12-18T16:19:13;14.11;;;13.78;;
71290;SDS011;59073;51.994;4.448;2022-12-18T16:21:38;14.34;;;14.11;;
71290;SDS011;59073;51.994;4.448;2022-12-18T16:24:05;14.51;;;14.23;;
71290;SDS011;59073;51.994;4.448;2022-12-18T16:26:30;14.27;;;14.03;;
71290;SDS011;59073;51.994;4.448;2022-12-18T16:28:56;13.37;;;13.30;;
71290;SDS011;59073;51.994;4.448;2022-12-18T16:31:21;13.86;;;13.72;;
71290;SDS011;59073;51.994;4.448;2022-12-18T16:33:46;14.52;;;14.37;;
71290;SDS011;59073;51.994;4.448;2022-12-18T16:36:13;14.87;;;14.63;;
71290;SDS011;59073;51.994;4.448;2022-12-18T16:38:39;13.96;;;13.73;;
71290;SDS011;59073;51.994;4.448;2022-12-18T16:41:11;14.74;;;14.51;;
71290;SDS011;59073;51.994;4.448;2022-12-18T16:43:59;14.58;;;14.29;;